sensor_id;sensor_type;location;lat;lon;timestamp;temperature;humidity
49579;DHT22;35483;50.828;3.228;2022-10-13T00:00:30;14.40;95.00
49579;DHT22;35483;50.828;3.228;2022-10-13T00:02:59;14.30;95.20
49579;DHT22;35483;50.828;3.228;2022-10-13T00:05:27;14.30;95.20
49579;DHT22;35483;50.828;3.228;2022-10-13T00:07:53;14.30;95.50
49579;DHT22;35483;50.828;3.228;2022-10-13T00:10:19;14.30;95.50
49579;DHT22;35483;50.828;3.228;2022-10-13T00:12:44;14.30;95.10
49579;DHT22;35483;50.828;3.228;2022-10-13T00:15:10;14.30;95.10
49579;DHT22;35483;50.828;3.228;2022-10-13T00:17:36;14.30;95.20
49579;DHT22;35483;50.828;3.228;2022-10-13T00:20:04;14.30;95.10
49579;DHT22;35483;50.828;3.228;2022-10-13T00:22:30;14.30;95.20
49579;DHT22;35483;50.828;3.228;2022-10-13T00:24:56;14.30;95.20
49579;DHT22;35483;50.828;3.228;2022-10-13T00:27:22;14.30;95.20
49579;DHT22;35483;50.828;3.228;2022-10-13T00:29:48;14.30;95.30
49579;DHT22;35483;50.828;3.228;2022-10-13T00:32:14;14.30;95.30
49579;DHT22;35483;50.828;3.228;2022-10-13T00:34:40;14.30;95.40
49579;DHT22;35483;50.828;3.228;2022-10-13T00:37:06;14.30;95.40
49579;DHT22;35483;50.828;3.228;2022-10-13T00:39:32;14.30;95.50
49579;DHT22;35483;50.828;3.228;2022-10-13T00:41:58;14.30;95.60
49579;DHT22;35483;50.828;3.228;2022-10-13T00:47:37;14.30;95.80
49579;DHT22;35483;50.828;3.228;2022-10-13T00:50:06;14.20;95.70
49579;DHT22;35483;50.828;3.228;2022-10-13T00:52:33;14.20;95.60
49579;DHT22;35483;50.828;3.228;2022-10-13T00:55:01;14.30;95.50
49579;DHT22;35483;50.828;3.228;2022-10-13T00:57:28;14.30;95.70
49579;DHT22;35483;50.828;3.228;2022-10-13T00:59:55;14.30;95.50
49579;DHT22;35483;50.828;3.228;2022-10-13T01:02:21;14.30;95.50
49579;DHT22;35483;50.828;3.228;2022-10-13T01:04:49;14.30;95.50
49579;DHT22;35483;50.828;3.228;2022-10-13T01:07:17;14.30;95.60
49579;DHT22;35483;50.828;3.228;2022-10-13T01:09:43;14.30;95.60
49579;DHT22;35483;50.828;3.228;2022-10-13T01:12:56;14.30;95.60
49579;DHT22;35483;50.828;3.228;2022-10-13T01:15:12;14.30;95.60
49579;DHT22;35483;50.828;3.228;2022-10-13T01:23:51;14.20;96.30
49579;DHT22;35483;50.828;3.228;2022-10-13T01:26:52;14.20;96.10
49579;DHT22;35483;50.828;3.228;2022-10-13T01:37:33;14.20;95.90
49579;DHT22;35483;50.828;3.228;2022-10-13T01:43:13;14.20;96.50
49579;DHT22;35483;50.828;3.228;2022-10-13T01:45:51;14.20;96.50
49579;DHT22;35483;50.828;3.228;2022-10-13T01:48:19;14.20;96.30
49579;DHT22;35483;50.828;3.228;2022-10-13T01:50:45;14.10;96.00
49579;DHT22;35483;50.828;3.228;2022-10-13T01:53:13;14.20;96.00
49579;DHT22;35483;50.828;3.228;2022-10-13T01:55:55;14.20;96.00
49579;DHT22;35483;50.828;3.228;2022-10-13T01:58:22;14.20;96.80
49579;DHT22;35483;50.828;3.228;2022-10-13T02:06:38;14.20;96.70
49579;DHT22;35483;50.828;3.228;2022-10-13T02:09:15;14.20;96.30
49579;DHT22;35483;50.828;3.228;2022-10-13T02:11:48;14.20;96.50
49579;DHT22;35483;50.828;3.228;2022-10-13T02:14:20;14.20;96.50
49579;DHT22;35483;50.828;3.228;2022-10-13T02:16:47;14.20;96.40
49579;DHT22;35483;50.828;3.228;2022-10-13T02:19:16;14.20;96.30
49579;DHT22;35483;50.828;3.228;2022-10-13T02:21:43;14.20;96.30
49579;DHT22;35483;50.828;3.228;2022-10-13T02:24:10;14.20;96.30
49579;DHT22;35483;50.828;3.228;2022-10-13T02:26:37;14.20;96.20
49579;DHT22;35483;50.828;3.228;2022-10-13T02:29:08;14.20;96.20
49579;DHT22;35483;50.828;3.228;2022-10-13T02:31:34;14.20;96.60
49579;DHT22;35483;50.828;3.228;2022-10-13T02:34:00;14.20;96.10
49579;DHT22;35483;50.828;3.228;2022-10-13T02:36:26;14.20;96.30
49579;DHT22;35483;50.828;3.228;2022-10-13T02:38:51;14.20;96.20
49579;DHT22;35483;50.828;3.228;2022-10-13T02:41:17;14.20;96.20
49579;DHT22;35483;50.828;3.228;2022-10-13T02:43:43;14.30;96.10
49579;DHT22;35483;50.828;3.228;2022-10-13T02:46:11;14.30;96.10
49579;DHT22;35483;50.828;3.228;2022-10-13T02:48:36;14.30;96.30
49579;DHT22;35483;50.828;3.228;2022-10-13T02:51:02;14.30;96.20
49579;DHT22;35483;50.828;3.228;2022-10-13T02:53:28;14.30;96.10
49579;DHT22;35483;50.828;3.228;2022-10-13T02:55:54;14.40;96.30
49579;DHT22;35483;50.828;3.228;2022-10-13T02:58:19;14.30;96.30
49579;DHT22;35483;50.828;3.228;2022-10-13T03:00:45;14.40;96.30
49579;DHT22;35483;50.828;3.228;2022-10-13T03:03:11;14.40;96.50
49579;DHT22;35483;50.828;3.228;2022-10-13T03:05:37;14.30;96.40
49579;DHT22;35483;50.828;3.228;2022-10-13T03:08:02;14.40;96.30
49579;DHT22;35483;50.828;3.228;2022-10-13T03:10:28;14.40;96.40
49579;DHT22;35483;50.828;3.228;2022-10-13T03:12:56;14.40;96.50
49579;DHT22;35483;50.828;3.228;2022-10-13T03:15:23;14.40;96.60
49579;DHT22;35483;50.828;3.228;2022-10-13T03:17:49;14.40;96.60
49579;DHT22;35483;50.828;3.228;2022-10-13T03:20:16;14.40;96.60
49579;DHT22;35483;50.828;3.228;2022-10-13T03:22:42;14.40;96.60
49579;DHT22;35483;50.828;3.228;2022-10-13T03:25:08;14.40;96.60
49579;DHT22;35483;50.828;3.228;2022-10-13T03:27:34;14.40;96.80
49579;DHT22;35483;50.828;3.228;2022-10-13T03:30:01;14.40;96.50
49579;DHT22;35483;50.828;3.228;2022-10-13T03:32:29;14.50;96.60
49579;DHT22;35483;50.828;3.228;2022-10-13T03:34:55;14.40;96.90
49579;DHT22;35483;50.828;3.228;2022-10-13T03:37:21;14.40;96.60
49579;DHT22;35483;50.828;3.228;2022-10-13T03:39:47;14.40;96.60
49579;DHT22;35483;50.828;3.228;2022-10-13T03:42:13;14.40;96.60
49579;DHT22;35483;50.828;3.228;2022-10-13T03:44:38;14.40;96.80
49579;DHT22;35483;50.828;3.228;2022-10-13T03:47:04;14.40;96.70
49579;DHT22;35483;50.828;3.228;2022-10-13T03:49:30;14.40;96.70
49579;DHT22;35483;50.828;3.228;2022-10-13T03:51:56;14.40;96.70
49579;DHT22;35483;50.828;3.228;2022-10-13T03:54:21;14.40;96.60
49579;DHT22;35483;50.828;3.228;2022-10-13T03:56:47;14.40;96.60
49579;DHT22;35483;50.828;3.228;2022-10-13T03:59:13;14.40;96.70
49579;DHT22;35483;50.828;3.228;2022-10-13T04:01:41;14.40;96.70
49579;DHT22;35483;50.828;3.228;2022-10-13T04:04:10;14.40;96.80
49579;DHT22;35483;50.828;3.228;2022-10-13T04:06:35;14.40;96.70
49579;DHT22;35483;50.828;3.228;2022-10-13T04:09:02;14.40;96.70
49579;DHT22;35483;50.828;3.228;2022-10-13T04:11:28;14.40;96.70
49579;DHT22;35483;50.828;3.228;2022-10-13T04:13:55;14.40;96.80
49579;DHT22;35483;50.828;3.228;2022-10-13T04:16:25;14.40;96.90
49579;DHT22;35483;50.828;3.228;2022-10-13T04:18:59;14.40;96.80
49579;DHT22;35483;50.828;3.228;2022-10-13T04:21:26;14.40;97.10
49579;DHT22;35483;50.828;3.228;2022-10-13T04:23:59;14.40;96.60
49579;DHT22;35483;50.828;3.228;2022-10-13T04:26:28;14.40;96.60
49579;DHT22;35483;50.828;3.228;2022-10-13T04:28:55;14.40;96.60
49579;DHT22;35483;50.828;3.228;2022-10-13T04:31:22;14.40;96.60
49579;DHT22;35483;50.828;3.228;2022-10-13T04:33:48;14.50;96.50
49579;DHT22;35483;50.828;3.228;2022-10-13T04:36:15;14.50;96.50
49579;DHT22;35483;50.828;3.228;2022-10-13T04:38:42;14.50;96.50
49579;DHT22;35483;50.828;3.228;2022-10-13T04:41:09;14.40;96.60
49579;DHT22;35483;50.828;3.228;2022-10-13T04:43:34;14.50;96.60
49579;DHT22;35483;50.828;3.228;2022-10-13T04:46:05;14.40;96.50
49579;DHT22;35483;50.828;3.228;2022-10-13T04:48:31;14.50;96.70
49579;DHT22;35483;50.828;3.228;2022-10-13T04:51:02;14.40;96.50
49579;DHT22;35483;50.828;3.228;2022-10-13T04:53:28;14.40;96.80
49579;DHT22;35483;50.828;3.228;2022-10-13T04:56:06;14.40;96.70
49579;DHT22;35483;50.828;3.228;2022-10-13T04:58:36;14.40;97.00
49579;DHT22;35483;50.828;3.228;2022-10-13T05:01:03;14.30;96.80
49579;DHT22;35483;50.828;3.228;2022-10-13T05:03:30;14.30;96.70
49579;DHT22;35483;50.828;3.228;2022-10-13T05:05:56;14.30;96.70
49579;DHT22;35483;50.828;3.228;2022-10-13T05:08:22;14.20;96.80
49579;DHT22;35483;50.828;3.228;2022-10-13T05:10:55;14.20;96.80
49579;DHT22;35483;50.828;3.228;2022-10-13T05:13:22;14.10;96.90
49579;DHT22;35483;50.828;3.228;2022-10-13T05:15:50;14.10;96.90
49579;DHT22;35483;50.828;3.228;2022-10-13T05:18:16;14.10;96.90
49579;DHT22;35483;50.828;3.228;2022-10-13T05:20:43;14.00;96.90
49579;DHT22;35483;50.828;3.228;2022-10-13T05:23:09;13.90;96.80
49579;DHT22;35483;50.828;3.228;2022-10-13T05:25:35;13.90;96.80
49579;DHT22;35483;50.828;3.228;2022-10-13T05:28:02;13.80;96.90
49579;DHT22;35483;50.828;3.228;2022-10-13T05:30:28;13.80;97.10
49579;DHT22;35483;50.828;3.228;2022-10-13T05:32:54;13.70;97.10
49579;DHT22;35483;50.828;3.228;2022-10-13T05:35:20;13.70;97.20
49579;DHT22;35483;50.828;3.228;2022-10-13T05:37:45;13.70;97.20
49579;DHT22;35483;50.828;3.228;2022-10-13T05:40:11;13.70;97.10
49579;DHT22;35483;50.828;3.228;2022-10-13T05:42:37;13.70;97.20
49579;DHT22;35483;50.828;3.228;2022-10-13T05:45:03;13.80;97.10
49579;DHT22;35483;50.828;3.228;2022-10-13T05:47:29;13.80;96.90
49579;DHT22;35483;50.828;3.228;2022-10-13T05:49:55;13.80;97.10
49579;DHT22;35483;50.828;3.228;2022-10-13T05:52:22;13.80;97.10
49579;DHT22;35483;50.828;3.228;2022-10-13T05:54:52;13.70;97.10
49579;DHT22;35483;50.828;3.228;2022-10-13T05:57:26;13.70;97.20
49579;DHT22;35483;50.828;3.228;2022-10-13T06:00:09;13.80;97.80
49579;DHT22;35483;50.828;3.228;2022-10-13T06:02:49;13.80;97.60
49579;DHT22;35483;50.828;3.228;2022-10-13T06:05:18;13.80;97.30
49579;DHT22;35483;50.828;3.228;2022-10-13T06:07:46;13.80;97.10
49579;DHT22;35483;50.828;3.228;2022-10-13T06:10:13;13.80;97.10
49579;DHT22;35483;50.828;3.228;2022-10-13T06:12:39;13.80;97.10
49579;DHT22;35483;50.828;3.228;2022-10-13T06:15:06;13.80;97.10
49579;DHT22;35483;50.828;3.228;2022-10-13T06:17:35;13.80;97.00
49579;DHT22;35483;50.828;3.228;2022-10-13T06:20:01;13.80;97.10
49579;DHT22;35483;50.828;3.228;2022-10-13T06:22:28;13.80;96.90
49579;DHT22;35483;50.828;3.228;2022-10-13T06:24:54;13.80;96.90
49579;DHT22;35483;50.828;3.228;2022-10-13T06:27:20;13.80;96.90
49579;DHT22;35483;50.828;3.228;2022-10-13T06:29:45;13.80;97.00
49579;DHT22;35483;50.828;3.228;2022-10-13T06:32:11;13.90;96.90
49579;DHT22;35483;50.828;3.228;2022-10-13T06:34:37;13.80;96.90
49579;DHT22;35483;50.828;3.228;2022-10-13T06:37:03;13.80;96.90
49579;DHT22;35483;50.828;3.228;2022-10-13T06:39:30;13.80;96.90
49579;DHT22;35483;50.828;3.228;2022-10-13T06:41:56;13.80;96.90
49579;DHT22;35483;50.828;3.228;2022-10-13T06:44:22;13.80;96.90
49579;DHT22;35483;50.828;3.228;2022-10-13T06:46:48;13.90;96.80
49579;DHT22;35483;50.828;3.228;2022-10-13T06:49:13;13.90;96.90
49579;DHT22;35483;50.828;3.228;2022-10-13T06:51:39;13.80;96.90
49579;DHT22;35483;50.828;3.228;2022-10-13T06:54:05;13.90;96.80
49579;DHT22;35483;50.828;3.228;2022-10-13T06:56:31;13.90;96.80
49579;DHT22;35483;50.828;3.228;2022-10-13T06:58:56;13.90;96.90
49579;DHT22;35483;50.828;3.228;2022-10-13T07:01:22;13.90;96.70
49579;DHT22;35483;50.828;3.228;2022-10-13T07:03:49;14.00;96.70
49579;DHT22;35483;50.828;3.228;2022-10-13T07:06:15;14.00;96.60
49579;DHT22;35483;50.828;3.228;2022-10-13T07:08:41;14.00;96.50
49579;DHT22;35483;50.828;3.228;2022-10-13T07:11:09;14.00;96.60
49579;DHT22;35483;50.828;3.228;2022-10-13T07:13:36;14.00;96.70
49579;DHT22;35483;50.828;3.228;2022-10-13T07:16:03;14.00;96.60
49579;DHT22;35483;50.828;3.228;2022-10-13T07:18:30;14.10;96.60
49579;DHT22;35483;50.828;3.228;2022-10-13T07:20:57;14.10;96.60
49579;DHT22;35483;50.828;3.228;2022-10-13T07:23:24;14.10;96.60
49579;DHT22;35483;50.828;3.228;2022-10-13T07:25:49;14.10;96.70
49579;DHT22;35483;50.828;3.228;2022-10-13T07:28:15;14.10;96.80
49579;DHT22;35483;50.828;3.228;2022-10-13T07:30:41;14.10;97.00
49579;DHT22;35483;50.828;3.228;2022-10-13T07:33:07;14.20;96.80
49579;DHT22;35483;50.828;3.228;2022-10-13T07:35:33;14.20;96.80
49579;DHT22;35483;50.828;3.228;2022-10-13T07:38:03;14.20;96.60
49579;DHT22;35483;50.828;3.228;2022-10-13T07:40:29;14.30;96.60
49579;DHT22;35483;50.828;3.228;2022-10-13T07:42:56;14.40;96.70
49579;DHT22;35483;50.828;3.228;2022-10-13T07:45:22;14.40;96.70
49579;DHT22;35483;50.828;3.228;2022-10-13T07:47:48;14.40;96.70
49579;DHT22;35483;50.828;3.228;2022-10-13T07:50:14;14.40;96.70
49579;DHT22;35483;50.828;3.228;2022-10-13T07:52:40;14.50;96.70
49579;DHT22;35483;50.828;3.228;2022-10-13T07:55:07;14.60;96.70
49579;DHT22;35483;50.828;3.228;2022-10-13T07:57:33;14.60;96.60
49579;DHT22;35483;50.828;3.228;2022-10-13T07:59:59;14.70;96.50
49579;DHT22;35483;50.828;3.228;2022-10-13T08:02:25;14.80;96.50
49579;DHT22;35483;50.828;3.228;2022-10-13T08:04:51;14.90;96.40
49579;DHT22;35483;50.828;3.228;2022-10-13T08:07:17;14.90;96.50
49579;DHT22;35483;50.828;3.228;2022-10-13T08:09:43;14.90;96.70
49579;DHT22;35483;50.828;3.228;2022-10-13T08:12:09;14.90;96.50
49579;DHT22;35483;50.828;3.228;2022-10-13T08:14:36;14.90;96.40
49579;DHT22;35483;50.828;3.228;2022-10-13T08:17:02;14.90;96.40
49579;DHT22;35483;50.828;3.228;2022-10-13T08:19:29;14.90;96.50
49579;DHT22;35483;50.828;3.228;2022-10-13T08:21:55;15.00;96.60
49579;DHT22;35483;50.828;3.228;2022-10-13T08:24:22;15.00;96.60
49579;DHT22;35483;50.828;3.228;2022-10-13T08:26:48;15.00;96.60
49579;DHT22;35483;50.828;3.228;2022-10-13T08:29:16;15.00;96.60
49579;DHT22;35483;50.828;3.228;2022-10-13T08:31:42;15.00;96.70
49579;DHT22;35483;50.828;3.228;2022-10-13T08:34:09;15.00;96.40
49579;DHT22;35483;50.828;3.228;2022-10-13T08:36:35;15.00;96.40
49579;DHT22;35483;50.828;3.228;2022-10-13T08:39:01;15.00;96.40
49579;DHT22;35483;50.828;3.228;2022-10-13T08:41:30;15.10;96.30
49579;DHT22;35483;50.828;3.228;2022-10-13T08:44:02;15.10;96.20
49579;DHT22;35483;50.828;3.228;2022-10-13T08:46:42;15.10;96.20
49579;DHT22;35483;50.828;3.228;2022-10-13T08:49:09;15.10;96.40
49579;DHT22;35483;50.828;3.228;2022-10-13T08:51:36;15.10;96.30
49579;DHT22;35483;50.828;3.228;2022-10-13T08:54:04;15.10;96.40
49579;DHT22;35483;50.828;3.228;2022-10-13T08:56:33;15.10;96.40
49579;DHT22;35483;50.828;3.228;2022-10-13T08:58:59;15.10;96.40
49579;DHT22;35483;50.828;3.228;2022-10-13T09:01:35;15.10;96.30
49579;DHT22;35483;50.828;3.228;2022-10-13T09:04:23;15.20;96.40
49579;DHT22;35483;50.828;3.228;2022-10-13T09:07:12;15.20;96.60
49579;DHT22;35483;50.828;3.228;2022-10-13T09:09:39;15.30;96.20
49579;DHT22;35483;50.828;3.228;2022-10-13T09:12:05;15.30;96.30
49579;DHT22;35483;50.828;3.228;2022-10-13T09:14:34;15.30;96.30
49579;DHT22;35483;50.828;3.228;2022-10-13T09:17:20;15.40;96.40
49579;DHT22;35483;50.828;3.228;2022-10-13T09:22:39;15.50;96.40
49579;DHT22;35483;50.828;3.228;2022-10-13T09:33:14;15.60;96.70
49579;DHT22;35483;50.828;3.228;2022-10-13T09:35:44;15.70;96.40
49579;DHT22;35483;50.828;3.228;2022-10-13T09:38:17;15.80;96.30
49579;DHT22;35483;50.828;3.228;2022-10-13T09:46:23;16.20;96.50
49579;DHT22;35483;50.828;3.228;2022-10-13T09:48:55;16.30;96.00
49579;DHT22;35483;50.828;3.228;2022-10-13T09:51:39;16.30;96.00
49579;DHT22;35483;50.828;3.228;2022-10-13T09:54:21;16.30;95.90
49579;DHT22;35483;50.828;3.228;2022-10-13T09:56:53;16.20;95.90
49579;DHT22;35483;50.828;3.228;2022-10-13T09:59:34;16.20;95.90
49579;DHT22;35483;50.828;3.228;2022-10-13T10:05:05;16.20;96.10
49579;DHT22;35483;50.828;3.228;2022-10-13T10:07:32;16.30;96.00
49579;DHT22;35483;50.828;3.228;2022-10-13T10:10:11;16.30;95.90
49579;DHT22;35483;50.828;3.228;2022-10-13T10:12:40;16.40;96.10
49579;DHT22;35483;50.828;3.228;2022-10-13T10:15:20;16.60;95.90
49579;DHT22;35483;50.828;3.228;2022-10-13T10:17:57;16.60;96.00
49579;DHT22;35483;50.828;3.228;2022-10-13T10:20:41;16.70;95.90
49579;DHT22;35483;50.828;3.228;2022-10-13T10:25:43;16.80;95.80
49579;DHT22;35483;50.828;3.228;2022-10-13T10:36:10;16.90;95.70
49579;DHT22;35483;50.828;3.228;2022-10-13T10:38:50;16.90;95.50
49579;DHT22;35483;50.828;3.228;2022-10-13T10:41:49;17.00;95.50
49579;DHT22;35483;50.828;3.228;2022-10-13T10:44:29;17.10;95.40
49579;DHT22;35483;50.828;3.228;2022-10-13T10:47:01;17.10;95.30
49579;DHT22;35483;50.828;3.228;2022-10-13T10:49:31;17.10;95.30
49579;DHT22;35483;50.828;3.228;2022-10-13T10:52:04;17.10;95.30
49579;DHT22;35483;50.828;3.228;2022-10-13T10:57:26;17.10;95.30
49579;DHT22;35483;50.828;3.228;2022-10-13T11:00:16;17.10;95.20
49579;DHT22;35483;50.828;3.228;2022-10-13T11:03:03;17.10;95.30
49579;DHT22;35483;50.828;3.228;2022-10-13T11:16:39;17.20;95.40
49579;DHT22;35483;50.828;3.228;2022-10-13T11:22:09;17.30;95.40
49579;DHT22;35483;50.828;3.228;2022-10-13T11:41:01;17.70;94.90
49579;DHT22;35483;50.828;3.228;2022-10-13T11:54:46;17.60;95.20
49579;DHT22;35483;50.828;3.228;2022-10-13T11:57:26;17.60;95.20
49579;DHT22;35483;50.828;3.228;2022-10-13T11:59:54;17.60;95.20
49579;DHT22;35483;50.828;3.228;2022-10-13T12:02:25;17.50;95.30
49579;DHT22;35483;50.828;3.228;2022-10-13T12:05:06;17.50;95.30
49579;DHT22;35483;50.828;3.228;2022-10-13T12:07:45;17.50;95.30
49579;DHT22;35483;50.828;3.228;2022-10-13T12:10:27;17.50;95.30
49579;DHT22;35483;50.828;3.228;2022-10-13T12:12:54;17.50;95.30
49579;DHT22;35483;50.828;3.228;2022-10-13T12:15:32;17.50;95.40
49579;DHT22;35483;50.828;3.228;2022-10-13T12:17:59;17.50;95.30
49579;DHT22;35483;50.828;3.228;2022-10-13T12:20:28;17.40;95.50
49579;DHT22;35483;50.828;3.228;2022-10-13T12:22:54;17.50;95.50
49579;DHT22;35483;50.828;3.228;2022-10-13T12:25:23;17.50;95.50
49579;DHT22;35483;50.828;3.228;2022-10-13T12:27:55;17.50;95.30
49579;DHT22;35483;50.828;3.228;2022-10-13T12:30:33;17.50;95.20
49579;DHT22;35483;50.828;3.228;2022-10-13T12:33:13;17.50;95.00
49579;DHT22;35483;50.828;3.228;2022-10-13T12:35:42;17.40;95.40
49579;DHT22;35483;50.828;3.228;2022-10-13T12:38:17;17.30;95.40
49579;DHT22;35483;50.828;3.228;2022-10-13T12:40:47;17.30;95.30
49579;DHT22;35483;50.828;3.228;2022-10-13T12:43:21;17.20;95.50
49579;DHT22;35483;50.828;3.228;2022-10-13T12:45:50;17.30;95.50
49579;DHT22;35483;50.828;3.228;2022-10-13T12:48:33;17.30;95.50
49579;DHT22;35483;50.828;3.228;2022-10-13T12:51:22;17.40;95.40
49579;DHT22;35483;50.828;3.228;2022-10-13T12:53:50;17.50;95.40
49579;DHT22;35483;50.828;3.228;2022-10-13T12:58:51;17.40;95.50
49579;DHT22;35483;50.828;3.228;2022-10-13T13:01:30;17.50;95.60
49579;DHT22;35483;50.828;3.228;2022-10-13T13:03:59;17.60;95.60
49579;DHT22;35483;50.828;3.228;2022-10-13T13:06:31;17.60;95.60
49579;DHT22;35483;50.828;3.228;2022-10-13T13:09:23;17.80;95.50
49579;DHT22;35483;50.828;3.228;2022-10-13T13:14:41;18.00;95.30
49579;DHT22;35483;50.828;3.228;2022-10-13T13:17:19;18.10;95.20
49579;DHT22;35483;50.828;3.228;2022-10-13T13:19:49;18.10;95.30
49579;DHT22;35483;50.828;3.228;2022-10-13T13:22:15;18.20;95.30
49579;DHT22;35483;50.828;3.228;2022-10-13T13:24:41;18.20;95.30
49579;DHT22;35483;50.828;3.228;2022-10-13T13:27:15;18.20;95.20
49579;DHT22;35483;50.828;3.228;2022-10-13T13:29:42;18.20;95.10
49579;DHT22;35483;50.828;3.228;2022-10-13T13:32:15;18.20;95.20
49579;DHT22;35483;50.828;3.228;2022-10-13T13:34:42;18.10;95.10
49579;DHT22;35483;50.828;3.228;2022-10-13T13:39:47;18.00;95.40
49579;DHT22;35483;50.828;3.228;2022-10-13T13:42:13;17.90;95.50
49579;DHT22;35483;50.828;3.228;2022-10-13T13:44:39;17.90;95.50
49579;DHT22;35483;50.828;3.228;2022-10-13T13:47:15;17.80;95.50
49579;DHT22;35483;50.828;3.228;2022-10-13T13:49:41;17.80;95.50
49579;DHT22;35483;50.828;3.228;2022-10-13T13:52:07;17.70;95.60
49579;DHT22;35483;50.828;3.228;2022-10-13T13:54:33;17.70;95.60
49579;DHT22;35483;50.828;3.228;2022-10-13T13:56:58;17.70;95.70
49579;DHT22;35483;50.828;3.228;2022-10-13T13:59:24;17.70;95.80
49579;DHT22;35483;50.828;3.228;2022-10-13T14:01:49;17.60;95.80
49579;DHT22;35483;50.828;3.228;2022-10-13T14:04:15;17.60;95.90
49579;DHT22;35483;50.828;3.228;2022-10-13T14:06:41;17.50;96.00
49579;DHT22;35483;50.828;3.228;2022-10-13T14:09:07;17.50;96.10
49579;DHT22;35483;50.828;3.228;2022-10-13T14:11:32;17.50;96.10
49579;DHT22;35483;50.828;3.228;2022-10-13T14:13:58;17.50;96.20
49579;DHT22;35483;50.828;3.228;2022-10-13T14:16:26;17.40;96.10
49579;DHT22;35483;50.828;3.228;2022-10-13T14:18:55;17.40;96.10
49579;DHT22;35483;50.828;3.228;2022-10-13T14:21:22;17.30;96.20
49579;DHT22;35483;50.828;3.228;2022-10-13T14:23:48;17.30;96.20
49579;DHT22;35483;50.828;3.228;2022-10-13T14:26:14;17.30;96.10
49579;DHT22;35483;50.828;3.228;2022-10-13T14:28:41;17.30;96.10
49579;DHT22;35483;50.828;3.228;2022-10-13T14:31:07;17.20;96.10
49579;DHT22;35483;50.828;3.228;2022-10-13T14:33:33;17.20;96.10
49579;DHT22;35483;50.828;3.228;2022-10-13T14:36:05;17.20;96.20
49579;DHT22;35483;50.828;3.228;2022-10-13T14:38:32;17.10;96.10
49579;DHT22;35483;50.828;3.228;2022-10-13T14:40:59;17.10;96.10
49579;DHT22;35483;50.828;3.228;2022-10-13T14:43:26;17.10;96.20
49579;DHT22;35483;50.828;3.228;2022-10-13T14:45:52;17.10;96.10
49579;DHT22;35483;50.828;3.228;2022-10-13T14:48:17;17.10;96.00
49579;DHT22;35483;50.828;3.228;2022-10-13T14:50:43;17.10;96.10
49579;DHT22;35483;50.828;3.228;2022-10-13T14:53:09;17.00;96.10
49579;DHT22;35483;50.828;3.228;2022-10-13T14:55:35;17.00;96.20
49579;DHT22;35483;50.828;3.228;2022-10-13T14:58:01;17.00;96.10
49579;DHT22;35483;50.828;3.228;2022-10-13T15:00:28;17.00;96.10
49579;DHT22;35483;50.828;3.228;2022-10-13T15:02:53;17.00;96.10
49579;DHT22;35483;50.828;3.228;2022-10-13T15:05:19;17.00;96.20
49579;DHT22;35483;50.828;3.228;2022-10-13T15:07:45;17.00;96.20
49579;DHT22;35483;50.828;3.228;2022-10-13T15:10:10;17.00;96.20
49579;DHT22;35483;50.828;3.228;2022-10-13T15:12:36;17.00;96.20
49579;DHT22;35483;50.828;3.228;2022-10-13T15:15:04;17.00;96.30
49579;DHT22;35483;50.828;3.228;2022-10-13T15:17:30;17.00;96.40
49579;DHT22;35483;50.828;3.228;2022-10-13T15:19:57;17.00;96.30
49579;DHT22;35483;50.828;3.228;2022-10-13T15:22:23;17.00;96.30
49579;DHT22;35483;50.828;3.228;2022-10-13T15:24:49;17.00;96.30
49579;DHT22;35483;50.828;3.228;2022-10-13T15:27:15;17.00;96.60
49579;DHT22;35483;50.828;3.228;2022-10-13T15:29:40;16.90;96.30
49579;DHT22;35483;50.828;3.228;2022-10-13T15:32:14;16.90;96.40
49579;DHT22;35483;50.828;3.228;2022-10-13T15:34:44;16.90;96.50
49579;DHT22;35483;50.828;3.228;2022-10-13T15:37:11;16.80;96.50
49579;DHT22;35483;50.828;3.228;2022-10-13T15:39:37;16.80;96.40
49579;DHT22;35483;50.828;3.228;2022-10-13T15:42:03;16.80;96.50
49579;DHT22;35483;50.828;3.228;2022-10-13T15:44:29;16.80;96.40
49579;DHT22;35483;50.828;3.228;2022-10-13T15:46:56;16.80;96.50
49579;DHT22;35483;50.828;3.228;2022-10-13T15:49:23;16.70;96.50
49579;DHT22;35483;50.828;3.228;2022-10-13T15:51:50;16.70;96.70
49579;DHT22;35483;50.828;3.228;2022-10-13T15:54:16;16.70;96.60
49579;DHT22;35483;50.828;3.228;2022-10-13T15:56:42;16.70;96.60
49579;DHT22;35483;50.828;3.228;2022-10-13T15:59:08;16.70;96.60
49579;DHT22;35483;50.828;3.228;2022-10-13T16:01:34;16.80;96.70
49579;DHT22;35483;50.828;3.228;2022-10-13T16:04:00;16.80;96.60
49579;DHT22;35483;50.828;3.228;2022-10-13T16:06:26;16.70;96.80
49579;DHT22;35483;50.828;3.228;2022-10-13T16:08:52;16.80;96.70
49579;DHT22;35483;50.828;3.228;2022-10-13T16:11:20;16.80;97.10
49579;DHT22;35483;50.828;3.228;2022-10-13T16:13:47;16.80;96.80
49579;DHT22;35483;50.828;3.228;2022-10-13T16:16:14;16.80;96.70
49579;DHT22;35483;50.828;3.228;2022-10-13T16:18:40;16.80;96.80
49579;DHT22;35483;50.828;3.228;2022-10-13T16:21:14;16.80;96.90
49579;DHT22;35483;50.828;3.228;2022-10-13T16:23:40;16.80;97.00
49579;DHT22;35483;50.828;3.228;2022-10-13T16:26:06;16.70;96.90
49579;DHT22;35483;50.828;3.228;2022-10-13T16:28:32;16.70;96.90
49579;DHT22;35483;50.828;3.228;2022-10-13T16:31:03;16.70;96.90
49579;DHT22;35483;50.828;3.228;2022-10-13T16:33:28;16.70;97.10
49579;DHT22;35483;50.828;3.228;2022-10-13T16:36:05;16.70;97.00
49579;DHT22;35483;50.828;3.228;2022-10-13T16:38:31;16.70;97.30
49579;DHT22;35483;50.828;3.228;2022-10-13T16:40:57;16.60;97.30
49579;DHT22;35483;50.828;3.228;2022-10-13T16:43:23;16.60;97.30
49579;DHT22;35483;50.828;3.228;2022-10-13T16:45:56;16.60;97.30
49579;DHT22;35483;50.828;3.228;2022-10-13T16:48:22;16.60;97.60
49579;DHT22;35483;50.828;3.228;2022-10-13T16:50:48;16.60;97.40
49579;DHT22;35483;50.828;3.228;2022-10-13T16:53:13;16.60;97.40
49579;DHT22;35483;50.828;3.228;2022-10-13T16:55:40;16.60;97.50
49579;DHT22;35483;50.828;3.228;2022-10-13T16:58:06;16.60;97.50
49579;DHT22;35483;50.828;3.228;2022-10-13T17:00:31;16.50;97.50
49579;DHT22;35483;50.828;3.228;2022-10-13T17:02:57;16.50;97.60
49579;DHT22;35483;50.828;3.228;2022-10-13T17:05:23;16.50;97.50
49579;DHT22;35483;50.828;3.228;2022-10-13T17:07:50;16.50;97.70
49579;DHT22;35483;50.828;3.228;2022-10-13T17:10:16;16.40;97.50
49579;DHT22;35483;50.828;3.228;2022-10-13T17:12:43;16.40;97.60
49579;DHT22;35483;50.828;3.228;2022-10-13T17:15:09;16.40;97.60
49579;DHT22;35483;50.828;3.228;2022-10-13T17:17:35;16.30;97.80
49579;DHT22;35483;50.828;3.228;2022-10-13T17:20:00;16.30;97.70
49579;DHT22;35483;50.828;3.228;2022-10-13T17:22:27;16.30;97.90
49579;DHT22;35483;50.828;3.228;2022-10-13T17:24:53;16.30;97.90
49579;DHT22;35483;50.828;3.228;2022-10-13T17:27:18;16.40;97.80